Time;durP1;ratioP1;P1;durP2;ratioP2;P2;SDS_P1;SDS_P2;PMS_P1;PMS_P2;Temp;Humidity;BMP_temperature;BMP_pressure;BME280_temperature;BME280_humidity;BME280_pressure;Samples;Min_cycle;Max_cycle;Signal;HPM_P1;HPM_P2
2023/11/28 00:00:55;;;;;;;;;;;;;;;;;;136267;1294;22311;-82
2023/11/28 00:04:09;;;;;;;;;;;;;;;;;;136273;1294;22305;-82
2023/11/28 00:07:12;;;;;;;;;;;;;;;;;;136245;1294;22262;-81
2023/11/28 00:10:14;;;;;;;;;;;;;;;;;;136229;1294;22213;-81
2023/11/28 00:13:17;;;;;;;;;;;;;;;;;;136228;1294;22320;-81
2023/11/28 00:16:19;;;;;;;;;;;;;;;;;;136215;1294;22367;-81
2023/11/28 00:19:23;;;;;;;;;;;;;;;;;;136204;1294;22284;-80
2023/11/28 00:22:25;;;;;;;;;;;;;;;;;;136179;1294;22766;-80
2023/11/28 00:25:28;;;;;;;;;;;;;;;;;;136161;1294;22466;-80
2023/11/28 00:28:30;;;;;;;;;;;;;;;;;;136161;1294;22378;-80
2023/11/28 00:31:33;;;;;;;;;;;;;;;;;;136175;1294;22788;-81
2023/11/28 00:34:35;;;;;;;;;;;;;;;;;;136173;1294;22716;-80
2023/11/28 00:37:40;;;;;;;;;;;;;;;;;;136152;1294;22206;-80
2023/11/28 00:40:43;;;;;;;;;;;;;;;;;;136197;1293;22739;-80
2023/11/28 00:43:45;;;;;;;;;;;;;;;;;;136192;1294;22371;-79
2023/11/28 00:46:48;;;;;;;;;;;;;;;;;;136207;1294;22273;-80
2023/11/28 00:49:50;;;;;;;;;;;;;;;;;;136158;1294;22350;-81
2023/11/28 00:52:55;;;;;;;;;;;;;;;;;;136222;1294;22220;-81
2023/11/28 00:55:58;;;;;;;;;;;;;;;;;;136194;1294;22761;-80
2023/11/28 00:59:00;;;;;;;;;;;;;;;;;;136198;1294;22474;-81
2023/11/28 01:02:05;;;;;;;;;;;;;;;;;;136190;1294;22297;-81
2023/11/28 01:05:08;;;;;;;;;;;;;;;;;;136236;1294;22267;-81
2023/11/28 01:08:11;;;;;;;;;;;;;;;;;;136187;1294;22262;-80
2023/11/28 01:11:13;;;;;;;;;;;;;;;;;;136217;1294;22363;-80
2023/11/28 01:14:16;;;;;;;;;;;;;;;;;;136242;1294;22265;-80
2023/11/28 01:17:21;;;;;;;;;;;;;;;;;;136206;1294;22283;-81
2023/11/28 01:20:23;;;;;;;;;;;;;;;;;;136243;1294;22828;-81
2023/11/28 01:23:26;;;;;;;;;;;;;;;;;;136246;1294;22312;-81
2023/11/28 01:26:28;;;;;;;;;;;;;;;;;;136190;1294;22707;-81
2023/11/28 01:29:31;;;;;;;;;;;;;;;;;;136231;1294;22531;-81
2023/11/28 01:32:33;;;;;;;;;;;;;;;;;;136190;1294;22630;-81
2023/11/28 01:35:37;;;;;;;;;;;;;;;;;;136196;1294;22705;-81
2023/11/28 01:38:39;;;;;;;;;;;;;;;;;;136243;1294;22279;-81
2023/11/28 01:41:42;;;;;;;;;;;;;;;;;;136262;1294;22301;-81
2023/11/28 01:44:45;;;;;;;;;;;;;;;;;;136234;1294;22340;-81
2023/11/28 01:47:48;;;;;;;;;;;;;;;;;;136252;1292;22331;-80
2023/11/28 01:50:50;;;;;;;;;;;;;;;;;;136249;1294;22504;-81
2023/11/28 01:53:56;;;;;;;;;;;;;;;;;;136235;1294;22792;-81
2023/11/28 01:56:58;;;;;;;;;;;;;;;;;;136226;1294;22347;-80
2023/11/28 02:00:03;;;;;;;;;;;;;;;;;;136204;1294;22969;-81
2023/11/28 02:03:05;;;;;;;;;;;;;;;;;;136234;1294;22262;-81
2023/11/28 02:06:08;;;;;;;;;;;;;;;;;;136310;1294;22163;-82
2023/11/28 02:09:11;;;;;;;;;;;;;;;;;;136363;1294;22655;-81
2023/11/28 02:12:14;;;;;;;;;;;;;;;;;;136395;1294;22280;-82
2023/11/28 02:15:16;;;;;;;;;;;;;;;;;;136345;1294;22213;-81
2023/11/28 02:18:19;;;;;;;;;;;;;;;;;;136353;1294;22485;-81
2023/11/28 02:21:21;;;;;;;;;;;;;;;;;;136230;1294;22764;-82
2023/11/28 02:24:24;;;;;;;;;;;;;;;;;;136243;1294;22293;-81
2023/11/28 02:27:26;;;;;;;;;;;;;;;;;;136223;1294;22417;-81
2023/11/28 02:30:29;;;;;;;;;;;;;;;;;;136138;1294;22224;-80
2023/11/28 02:33:32;;;;;;;;;;;;;;;;;;136225;1294;22099;-81
2023/11/28 02:36:34;;;;;;;;;;;;;;;;;;136217;1294;22468;-78
2023/11/28 02:39:36;;;;;;;;;;;;;;;;;;136191;1294;22810;-80
2023/11/28 02:42:39;;;;;;;;;;;;;;;;;;136226;1294;22300;-81
2023/11/28 02:45:41;;;;;;;;;;;;;;;;;;136224;1294;22268;-80
2023/11/28 02:48:44;;;;;;;;;;;;;;;;;;135989;1282;22417;-82
2023/11/28 02:51:46;;;;;;;;;;;;;;;;;;136220;1294;22415;-80
2023/11/28 02:54:49;;;;;;;;;;;;;;;;;;136246;1294;22312;-81
2023/11/28 02:57:51;;;;;;;;;;;;;;;;;;136205;1294;22399;-81
2023/11/28 03:00:54;;;;;;;;;;;;;;;;;;136245;1294;22280;-81
2023/11/28 03:03:56;;;;;;;;;;;;;;;;;;136234;1294;22980;-81
2023/11/28 03:07:01;;;;;;;;;;;;;;;;;;136218;1294;22302;-81
2023/11/28 03:10:04;;;;;;;;;;;;;;;;;;136206;1294;22285;-80
2023/11/28 03:13:06;;;;;;;;;;;;;;;;;;136202;1279;22277;-80
2023/11/28 03:16:09;;;;;;;;;;;;;;;;;;136214;1294;22195;-81
2023/11/28 03:19:16;;;;;;;;;;;;;;;;;;136238;1294;22195;-81
2023/11/28 03:22:18;;;;;;;;;;;;;;;;;;136260;1294;22866;-80
2023/11/28 03:25:21;;;;;;;;;;;;;;;;;;136246;1294;22307;-80
2023/11/28 03:28:23;;;;;;;;;;;;;;;;;;136227;1294;22422;-81
2023/11/28 03:31:26;;;;;;;;;;;;;;;;;;136245;1294;22282;-80
2023/11/28 03:34:28;;;;;;;;;;;;;;;;;;136212;1292;22293;-80
2023/11/28 03:37:31;;;;;;;;;;;;;;;;;;136225;1294;22438;-81
2023/11/28 03:40:33;;;;;;;;;;;;;;;;;;136226;1294;22222;-80
2023/11/28 03:43:36;;;;;;;;;;;;;;;;;;136179;1294;22270;-80
2023/11/28 03:46:39;;;;;;;;;;;;;;;;;;136181;1294;22212;-81
2023/11/28 03:49:41;;;;;;;;;;;;;;;;;;136197;1294;22198;-81
2023/11/28 03:52:43;;;;;;;;;;;;;;;;;;136207;1294;22349;-80
2023/11/28 03:55:46;;;;;;;;;;;;;;;;;;136198;1294;22465;-81
2023/11/28 03:58:49;;;;;;;;;;;;;;;;;;136198;1294;22410;-81
2023/11/28 04:01:54;;;;;;;;;;;;;;;;;;136208;1294;22291;-81
2023/11/28 04:04:59;;;;;;;;;;;;;;;;;;136225;1293;22478;-80
2023/11/28 04:08:07;;;;;;;;;;;;;;;;;;136219;1294;22306;-81
2023/11/28 04:11:10;;;;;;;;;;;;;;;;;;136230;1294;22285;-80
2023/11/28 04:14:12;;;;;;;;;;;;;;;;;;136212;1288;22317;-81
2023/11/28 04:17:15;;;;;;;;;;;;;;;;;;136212;1294;22326;-81
2023/11/28 04:20:17;;;;;;;;;;;;;;;;;;136223;1282;22192;-80
2023/11/28 04:23:20;;;;;;;;;;;;;;;;;;136239;1294;22189;-80
2023/11/28 04:26:23;;;;;;;;;;;;;;;;;;136373;1294;22316;-81
2023/11/28 04:29:25;;;;;;;;;;;;;;;;;;136390;1294;22380;-81
2023/11/28 04:32:28;;;;;;;;;;;;;;;;;;136303;1294;22284;-83
2023/11/28 04:35:30;;;;;;;;;;;;;;;;;;136221;1294;22301;-81
2023/11/28 04:38:33;;;;;;;;;;;;;;;;;;136176;1294;22270;-81
2023/11/28 04:41:35;;;;;;;;;;;;;;;;;;136193;1294;22272;-81
2023/11/28 04:44:38;;;;;;;;;;;;;;;;;;136168;1294;22312;-79
2023/11/28 04:47:40;;;;;;;;;;;;;;;;;;136173;1294;22301;-81
2023/11/28 04:50:43;;;;;;;;;;;;;;;;;;136148;1288;22361;-82
2023/11/28 04:53:45;;;;;;;;;;;;;;;;;;136134;1294;22197;-79
2023/11/28 04:56:48;;;;;;;;;;;;;;;;;;136164;1294;22372;-81
2023/11/28 04:59:51;;;;;;;;;;;;;;;;;;136119;1294;22476;-81
2023/11/28 05:02:53;;;;;;;;;;;;;;;;;;136180;1294;22269;-81
2023/11/28 05:05:55;;;;;;;;;;;;;;;;;;136188;1279;22323;-84
2023/11/28 05:08:58;;;;;;;;;;;;;;;;;;136145;1294;22612;-83
2023/11/28 05:12:01;;;;;;;;;;;;;;;;;;136088;1294;22208;-85
2023/11/28 05:15:04;;;;;;;;;;;;;;;;;;136007;1294;22639;-81
2023/11/28 05:18:07;;;;;;;;;;;;;;;;;;136082;1294;22187;-84
2023/11/28 05:21:11;;;;;;;;;;;;;;;;;;136016;1294;22270;-84
2023/11/28 05:24:14;;;;;;;;;;;;;;;;;;136027;1294;22288;-83
2023/11/28 05:27:16;;;;;;;;;;;;;;;;;;136110;1294;22337;-84
2023/11/28 05:30:19;;;;;;;;;;;;;;;;;;136158;1294;22369;-84
2023/11/28 05:33:21;;;;;;;;;;;;;;;;;;136138;1294;22212;-83
2023/11/28 05:36:26;;;;;;;;;;;;;;;;;;136125;1294;22712;-83
2023/11/28 05:39:29;;;;;;;;;;;;;;;;;;136117;1292;22228;-83
2023/11/28 05:42:31;;;;;;;;;;;;;;;;;;136114;1294;22301;-83
2023/11/28 05:45:34;;;;;;;;;;;;;;;;;;136062;1294;22272;-84
2023/11/28 05:48:38;;;;;;;;;;;;;;;;;;136024;1294;22316;-83
2023/11/28 05:51:56;;;;;;;;;;;;;;;;;;135989;1294;22327;-83
2023/11/28 05:54:59;;;;;;;;;;;;;;;;;;136025;1294;22323;-80
2023/11/28 05:58:01;;;;;;;;;;;;;;;;;;136237;1294;22506;-82
2023/11/28 06:01:05;;;;;;;;;;;;;;;;;;136133;1294;22314;-82
2023/11/28 06:04:13;;;;;;;;;;;;;;;;;;136006;1294;22268;-81
2023/11/28 06:07:16;;;;;;;;;;;;;;;;;;136013;1294;22279;-82
2023/11/28 06:10:19;;;;;;;;;;;;;;;;;;135987;1294;22257;-80
2023/11/28 06:13:22;;;;;;;;;;;;;;;;;;135963;1294;22187;-80
2023/11/28 06:16:27;;;;;;;;;;;;;;;;;;136036;1294;22295;-80
2023/11/28 06:19:30;;;;;;;;;;;;;;;;;;136053;1294;22396;-81
2023/11/28 06:22:35;;;;;;;;;;;;;;;;;;135981;1294;22287;-80
2023/11/28 06:25:39;;;;;;;;;;;;;;;;;;136037;1294;22292;-81
2023/11/28 06:28:41;;;;;;;;;;;;;;;;;;136083;1294;22376;-81
2023/11/28 06:31:44;;;;;;;;;;;;;;;;;;136004;1294;22300;-81
2023/11/28 06:34:47;;;;;;;;;;;;;;;;;;136033;1294;22318;-81
2023/11/28 06:37:49;;;;;;;;;;;;;;;;;;136136;1294;22432;-80
2023/11/28 06:40:52;;;;;;;;;;;;;;;;;;136091;1294;22274;-81
2023/11/28 06:43:54;;;;;;;;;;;;;;;;;;136212;1294;22217;-78
2023/11/28 06:46:57;;;;;;;;;;;;;;;;;;136231;1294;22199;-81
2023/11/28 06:50:00;;;;;;;;;;;;;;;;;;136291;1294;22213;-81
2023/11/28 06:53:03;;;;;;;;;;;;;;;;;;136198;1294;22296;-80
2023/11/28 06:56:05;;;;;;;;;;;;;;;;;;136089;1291;22217;-81
2023/11/28 06:59:08;;;;;;;;;;;;;;;;;;136060;1294;22458;-82
2023/11/28 07:02:11;;;;;;;;;;;;;;;;;;136036;1294;22245;-83
2023/11/28 07:05:14;;;;;;;;;;;;;;;;;;136057;1294;22831;-82
2023/11/28 07:08:16;;;;;;;;;;;;;;;;;;136023;1294;22598;-82
2023/11/28 07:11:19;;;;;;;;;;;;;;;;;;136010;1294;22957;-82
2023/11/28 07:14:22;;;;;;;;;;;;;;;;;;136032;1289;22218;-82
2023/11/28 07:17:26;;;;;;;;;;;;;;;;;;135482;1294;22928;-81
2023/11/28 07:20:28;;;;;;;;;;;;;;;;;;136036;1294;22312;-82
2023/11/28 07:23:33;;;;;;;;;;;;;;;;;;135841;1294;22350;-81
2023/11/28 07:26:35;;;;;;;;;;;;;;;;;;135989;1289;22204;-79
2023/11/28 07:29:38;;;;;;;;;;;;;;;;;;136075;1294;22407;-80
2023/11/28 07:32:40;;;;;;;;;;;;;;;;;;136144;1294;22388;-81
2023/11/28 07:35:43;;;;;;;;;;;;;;;;;;136037;1294;22201;-79
2023/11/28 07:38:46;;;;;;;;;;;;;;;;;;136044;1294;22288;-83
2023/11/28 07:41:49;;;;;;;;;;;;;;;;;;136168;1294;22302;-81
2023/11/28 07:44:51;;;;;;;;;;;;;;;;;;136061;1294;22221;-81
2023/11/28 07:47:54;;;;;;;;;;;;;;;;;;136001;1294;22930;-81
2023/11/28 07:50:56;;;;;;;;;;;;;;;;;;136105;1294;22785;-81
2023/11/28 07:53:59;;;;;;;;;;;;;;;;;;136094;1294;22913;-81
2023/11/28 07:57:01;;;;;;;;;;;;;;;;;;136064;1294;22317;-81
2023/11/28 08:00:07;;;;;;;;;;;;;;;;;;136086;1294;22422;-79
2023/11/28 08:03:10;;;;;;;;;;;;;;;;;;136026;1292;22201;-82
2023/11/28 08:06:12;;;;;;;;;;;;;;;;;;136024;1294;22268;-80
2023/11/28 08:09:15;;;;;;;;;;;;;;;;;;136160;1294;22314;-81
2023/11/28 08:12:18;;;;;;;;;;;;;;;;;;136066;1294;22786;-81
2023/11/28 08:15:20;;;;;;;;;;;;;;;;;;135828;1294;244566;-82
2023/11/28 08:18:23;;;;;;;;;;;;;;;;;;136079;1294;22858;-81
2023/11/28 08:21:28;;;;;;;;;;;;;;;;;;136005;1294;22354;-81
2023/11/28 08:24:30;;;;;;;;;;;;;;;;;;135970;1294;22294;-81
2023/11/28 08:27:33;;;;;;;;;;;;;;;;;;136032;1294;22387;-81
2023/11/28 08:30:36;;;;;;;;;;;;;;;;;;136036;1294;22316;-80
2023/11/28 08:33:38;;;;;;;;;;;;;;;;;;136006;1294;22771;-81
2023/11/28 08:36:41;;;;;;;;;;;;;;;;;;136032;1294;22329;-81
2023/11/28 08:39:43;;;;;;;;;;;;;;;;;;136052;1294;22287;-81
2023/11/28 08:42:46;;;;;;;;;;;;;;;;;;135988;1294;22941;-81
2023/11/28 08:45:48;;;;;;;;;;;;;;;;;;135967;1294;22257;-79
2023/11/28 08:48:51;;;;;;;;;;;;;;;;;;135931;1294;22273;-80
2023/11/28 08:51:56;;;;;;;;;;;;;;;;;;135993;1291;22840;-80
2023/11/28 08:54:59;;;;;;;;;;;;;;;;;;135976;1294;22867;-82
2023/11/28 08:58:02;;;;;;;;;;;;;;;;;;136108;1294;22427;-82
2023/11/28 09:01:05;;;;;;;;;;;;;;;;;;136172;1294;22271;-81
2023/11/28 09:04:07;;;;;;;;;;;;;;;;;;136197;1293;22720;-81
2023/11/28 09:07:10;;;;;;;;;;;;;;;;;;136243;1294;22275;-81
2023/11/28 09:10:13;;;;;;;;;;;;;;;;;;136173;1294;22291;-81
2023/11/28 09:13:15;;;;;;;;;;;;;;;;;;136090;1294;22260;-83
2023/11/28 09:16:20;;;;;;;;;;;;;;;;;;136035;1294;22297;-80
2023/11/28 09:19:23;;;;;;;;;;;;;;;;;;135942;1294;22189;-81
2023/11/28 09:22:28;;;;;;;;;;;;;;;;;;135963;1294;22275;-80
2023/11/28 09:25:31;;;;;;;;;;;;;;;;;;136005;1294;22612;-81
2023/11/28 09:28:34;;;;;;;;;;;;;;;;;;135993;1294;22392;-82
2023/11/28 09:31:38;;;;;;;;;;;;;;;;;;136104;1294;22347;-81
2023/11/28 09:34:40;;;;;;;;;;;;;;;;;;136068;1294;22837;-83
2023/11/28 09:37:43;;;;;;;;;;;;;;;;;;136112;1294;22373;-82
2023/11/28 09:40:46;;;;;;;;;;;;;;;;;;136176;1294;22319;-83
2023/11/28 09:43:49;;;;;;;;;;;;;;;;;;136197;1294;22260;-82
2023/11/28 09:46:52;;;;;;;;;;;;;;;;;;136138;1294;22184;-82
2023/11/28 09:49:54;;;;;;;;;;;;;;;;;;136056;1294;22306;-81
2023/11/28 09:52:57;;;;;;;;;;;;;;;;;;136111;1294;22375;-82
2023/11/28 09:55:59;;;;;;;;;;;;;;;;;;136092;1294;23192;-80
2023/11/28 09:59:05;;;;;;;;;;;;;;;;;;136008;1294;22416;-85
2023/11/28 10:02:07;;;;;;;;;;;;;;;;;;135971;1294;22256;-80
2023/11/28 10:05:10;;;;;;;;;;;;;;;;;;135989;1294;22278;-81
2023/11/28 10:08:12;;;;;;;;;;;;;;;;;;135675;1291;22459;-81
2023/11/28 10:11:16;;;;;;;;;;;;;;;;;;136045;1294;22311;-83
2023/11/28 10:14:21;;;;;;;;;;;;;;;;;;136018;1294;22313;-81
2023/11/28 10:17:23;;;;;;;;;;;;;;;;;;135950;1294;22272;-81
2023/11/28 10:20:27;;;;;;;;;;;;;;;;;;135972;1294;22296;-81
2023/11/28 10:23:30;;;;;;;;;;;;;;;;;;135965;1292;22218;-80
2023/11/28 10:26:32;;;;;;;;;;;;;;;;;;135866;1294;22231;-81
2023/11/28 10:29:35;;;;;;;;;;;;;;;;;;135866;1294;22392;-81
2023/11/28 10:32:38;;;;;;;;;;;;;;;;;;135919;1294;22348;-80
2023/11/28 10:35:42;;;;;;;;;;;;;;;;;;135875;1294;22808;-80
2023/11/28 10:38:44;;;;;;;;;;;;;;;;;;135952;1294;22291;-80
2023/11/28 10:41:47;;;;;;;;;;;;;;;;;;135995;1294;22325;-79
2023/11/28 10:44:49;;;;;;;;;;;;;;;;;;135962;1294;22348;-80
2023/11/28 10:47:52;;;;;;;;;;;;;;;;;;135959;1294;22334;-82
2023/11/28 10:50:55;;;;;;;;;;;;;;;;;;135990;1289;22346;-81
2023/11/28 10:53:57;;;;;;;;;;;;;;;;;;135990;1294;22492;-82
2023/11/28 10:57:01;;;;;;;;;;;;;;;;;;136001;1294;22784;-81
2023/11/28 11:00:06;;;;;;;;;;;;;;;;;;135999;1294;22405;-81
2023/11/28 11:03:11;;;;;;;;;;;;;;;;;;135974;1294;22260;-80
2023/11/28 11:06:13;;;;;;;;;;;;;;;;;;135939;1294;22754;-81
2023/11/28 11:09:16;;;;;;;;;;;;;;;;;;135990;1294;22278;-80
2023/11/28 11:12:19;;;;;;;;;;;;;;;;;;135980;1294;22682;-81
2023/11/28 11:15:22;;;;;;;;;;;;;;;;;;136079;1294;22286;-82
2023/11/28 11:18:25;;;;;;;;;;;;;;;;;;136115;1294;22328;-81
2023/11/28 11:21:28;;;;;;;;;;;;;;;;;;136088;1294;22678;-81
2023/11/28 11:24:30;;;;;;;;;;;;;;;;;;136226;1294;22288;-80
2023/11/28 11:27:33;;;;;;;;;;;;;;;;;;136206;1294;22537;-80
2023/11/28 11:30:36;;;;;;;;;;;;;;;;;;136157;1294;22389;-81
2023/11/28 11:33:38;;;;;;;;;;;;;;;;;;136044;1294;22184;-80
2023/11/28 11:36:41;;;;;;;;;;;;;;;;;;136062;1294;22283;-81
2023/11/28 11:39:43;;;;;;;;;;;;;;;;;;136010;1294;22295;-80
2023/11/28 11:42:46;;;;;;;;;;;;;;;;;;135973;1294;22218;-81
2023/11/28 11:45:48;;;;;;;;;;;;;;;;;;136005;1294;22212;-80
2023/11/28 11:48:51;;;;;;;;;;;;;;;;;;135998;1294;22735;-81
2023/11/28 11:51:56;;;;;;;;;;;;;;;;;;135958;1294;22346;-80
2023/11/28 11:54:59;;;;;;;;;;;;;;;;;;136020;1294;22270;-81
2023/11/28 11:58:01;;;;;;;;;;;;;;;;;;135948;1294;22494;-82
2023/11/28 12:01:04;;;;;;;;;;;;;;;;;;136051;1294;22191;-80
2023/11/28 12:04:07;;;;;;;;;;;;;;;;;;136089;1294;22270;-81
2023/11/28 12:07:09;;;;;;;;;;;;;;;;;;135995;1294;22271;-81
2023/11/28 12:10:12;;;;;;;;;;;;;;;;;;136001;1294;22768;-81
2023/11/28 12:13:15;;;;;;;;;;;;;;;;;;136040;1294;22732;-81
2023/11/28 12:16:18;;;;;;;;;;;;;;;;;;136005;1291;22225;-81
2023/11/28 12:19:20;;;;;;;;;;;;;;;;;;136002;1294;22281;-81
2023/11/28 12:22:23;;;;;;;;;;;;;;;;;;136001;1294;22309;-81
2023/11/28 12:25:26;;;;;;;;;;;;;;;;;;135984;1294;22312;-81
2023/11/28 12:28:28;;;;;;;;;;;;;;;;;;135989;1294;22806;-81
2023/11/28 12:31:31;;;;;;;;;;;;;;;;;;135983;1294;23019;-82
2023/11/28 12:34:33;;;;;;;;;;;;;;;;;;136012;1294;22290;-81
2023/11/28 12:37:36;;;;;;;;;;;;;;;;;;135994;1294;22405;-82
2023/11/28 12:40:39;;;;;;;;;;;;;;;;;;135938;1294;22209;-82
2023/11/28 12:43:41;;;;;;;;;;;;;;;;;;135913;1294;22321;-81
2023/11/28 12:46:45;;;;;;;;;;;;;;;;;;135875;1294;22430;-82
2023/11/28 12:49:48;;;;;;;;;;;;;;;;;;135911;1294;22183;-81
2023/11/28 12:52:50;;;;;;;;;;;;;;;;;;135892;1294;22186;-82
2023/11/28 12:55:53;;;;;;;;;;;;;;;;;;135892;1294;22179;-81
2023/11/28 12:58:58;;;;;;;;;;;;;;;;;;135943;1294;22451;-81
2023/11/28 13:02:01;;;;;;;;;;;;;;;;;;135932;1294;22307;-81
2023/11/28 13:05:04;;;;;;;;;;;;;;;;;;135923;1294;22304;-82
2023/11/28 13:08:06;;;;;;;;;;;;;;;;;;135960;1294;22705;-83
2023/11/28 13:11:09;;;;;;;;;;;;;;;;;;136036;1294;22701;-81
2023/11/28 13:14:11;;;;;;;;;;;;;;;;;;135933;1294;22299;-80
2023/11/28 13:17:15;;;;;;;;;;;;;;;;;;135883;1294;22201;-80
2023/11/28 13:20:20;;;;;;;;;;;;;;;;;;135904;1294;22313;-81
2023/11/28 13:23:22;;;;;;;;;;;;;;;;;;135914;1294;22278;-81
2023/11/28 13:26:25;;;;;;;;;;;;;;;;;;135929;1294;22304;-80
2023/11/28 13:29:28;;;;;;;;;;;;;;;;;;135957;1294;22452;-81
2023/11/28 13:32:31;;;;;;;;;;;;;;;;;;135976;1294;22288;-81
2023/11/28 13:35:34;;;;;;;;;;;;;;;;;;136044;1294;22185;-81
2023/11/28 13:38:36;;;;;;;;;;;;;;;;;;136052;1294;22305;-80
2023/11/28 13:41:39;;;;;;;;;;;;;;;;;;136112;1294;22422;-81
2023/11/28 13:44:41;;;;;;;;;;;;;;;;;;136037;1294;22356;-81
2023/11/28 13:47:45;;;;;;;;;;;;;;;;;;136193;1294;22814;-80
2023/11/28 13:50:47;;;;;;;;;;;;;;;;;;136178;1294;22245;-80
2023/11/28 13:53:54;;;;;;;;;;;;;;;;;;136149;1294;22461;-80
2023/11/28 13:56:56;;;;;;;;;;;;;;;;;;136062;1294;22285;-82
2023/11/28 13:59:59;;;;;;;;;;;;;;;;;;135865;1294;22426;-81
2023/11/28 14:03:02;;;;;;;;;;;;;;;;;;135945;1294;22250;-80
2023/11/28 14:06:05;;;;;;;;;;;;;;;;;;135972;1294;22425;-80
2023/11/28 14:09:11;;;;;;;;;;;;;;;;;;135926;1294;22294;-79
2023/11/28 14:12:14;;;;;;;;;;;;;;;;;;135897;1294;22208;-80
2023/11/28 14:15:16;;;;;;;;;;;;;;;;;;135933;1294;22281;-81
2023/11/28 14:18:19;;;;;;;;;;;;;;;;;;135976;1294;22278;-80
2023/11/28 14:21:21;;;;;;;;;;;;;;;;;;135957;1294;22273;-80
2023/11/28 14:24:24;;;;;;;;;;;;;;;;;;135906;1294;22367;-81
2023/11/28 14:27:27;;;;;;;;;;;;;;;;;;135917;1294;22459;-80
2023/11/28 14:30:29;;;;;;;;;;;;;;;;;;135883;1286;22176;-79
2023/11/28 14:33:32;;;;;;;;;;;;;;;;;;135898;1283;22195;-80
2023/11/28 14:36:37;;;;;;;;;;;;;;;;;;135905;1294;22324;-81
2023/11/28 14:39:45;;;;;;;;;;;;;;;;;;135943;1294;22253;-80
2023/11/28 14:42:47;;;;;;;;;;;;;;;;;;136025;1294;22768;-80
2023/11/28 14:45:50;;;;;;;;;;;;;;;;;;136009;1292;22219;-81
2023/11/28 14:48:58;;;;;;;;;;;;;;;;;;136093;1294;22460;-80
2023/11/28 14:52:00;;;;;;;;;;;;;;;;;;136070;1294;22340;-83
2023/11/28 14:55:03;;;;;;;;;;;;;;;;;;136025;1294;22788;-80
2023/11/28 14:58:06;;;;;;;;;;;;;;;;;;135956;1294;22432;-80
2023/11/28 15:01:08;;;;;;;;;;;;;;;;;;136005;1294;22423;-81
2023/11/28 15:04:14;;;;;;;;;;;;;;;;;;135986;1294;22176;-79
2023/11/28 15:07:18;;;;;;;;;;;;;;;;;;136015;1294;22277;-83
2023/11/28 15:10:20;;;;;;;;;;;;;;;;;;136117;1294;22202;-85
2023/11/28 15:13:23;;;;;;;;;;;;;;;;;;136110;1294;22777;-85
2023/11/28 15:16:25;;;;;;;;;;;;;;;;;;136121;1294;22292;-85
2023/11/28 15:19:28;;;;;;;;;;;;;;;;;;136140;1294;22372;-85
2023/11/28 15:22:30;;;;;;;;;;;;;;;;;;136149;1294;22736;-84
2023/11/28 15:25:33;;;;;;;;;;;;;;;;;;136146;1294;22775;-84
2023/11/28 15:28:36;;;;;;;;;;;;;;;;;;136126;1294;22364;-84
2023/11/28 15:31:38;;;;;;;;;;;;;;;;;;136133;1294;22324;-82
2023/11/28 15:34:42;;;;;;;;;;;;;;;;;;136124;1294;22385;-82
2023/11/28 15:37:45;;;;;;;;;;;;;;;;;;136124;1294;22743;-84
2023/11/28 15:40:47;;;;;;;;;;;;;;;;;;136116;1294;22312;-83
2023/11/28 15:43:50;;;;;;;;;;;;;;;;;;136183;1294;22318;-86
2023/11/28 15:46:53;;;;;;;;;;;;;;;;;;136209;1294;22182;-86
2023/11/28 15:49:55;;;;;;;;;;;;;;;;;;136202;1294;22376;-82
2023/11/28 15:52:58;;;;;;;;;;;;;;;;;;136237;1294;22310;-81
2023/11/28 15:56:00;;;;;;;;;;;;;;;;;;136211;1294;22318;-82
2023/11/28 15:59:03;;;;;;;;;;;;;;;;;;136219;1294;22673;-79
2023/11/28 16:02:07;;;;;;;;;;;;;;;;;;136185;1287;22181;-81
2023/11/28 16:05:10;;;;;;;;;;;;;;;;;;136292;1294;22292;-82
2023/11/28 16:08:16;;;;;;;;;;;;;;;;;;136279;1294;22306;-82
2023/11/28 16:11:18;;;;;;;;;;;;;;;;;;136245;1289;22287;-82
2023/11/28 16:14:21;;;;;;;;;;;;;;;;;;136233;1294;22767;-82
2023/11/28 16:17:23;;;;;;;;;;;;;;;;;;136212;1294;22290;-82
2023/11/28 16:20:27;;;;;;;;;;;;;;;;;;136186;1294;22344;-82
2023/11/28 16:23:30;;;;;;;;;;;;;;;;;;136204;1294;22280;-85
2023/11/28 16:26:36;;;;;;;;;;;;;;;;;;136165;1287;22238;-83
2023/11/28 16:29:39;;;;;;;;;;;;;;;;;;136196;1294;22461;-82
2023/11/28 16:32:41;;;;;;;;;;;;;;;;;;136165;1294;22721;-84
2023/11/28 16:35:44;;;;;;;;;;;;;;;;;;136239;1294;22658;-80
2023/11/28 16:38:48;;;;;;;;;;;;;;;;;;136238;1294;22283;-83
2023/11/28 16:41:50;;;;;;;;;;;;;;;;;;135966;1294;22364;-81
2023/11/28 16:44:55;;;;;;;;;;;;;;;;;;136148;1294;22908;-81
2023/11/28 16:47:57;;;;;;;;;;;;;;;;;;136152;1286;22239;-81
2023/11/28 16:51:00;;;;;;;;;;;;;;;;;;136164;1291;22394;-80
2023/11/28 16:54:03;;;;;;;;;;;;;;;;;;136163;1294;22654;-81
2023/11/28 16:57:05;;;;;;;;;;;;;;;;;;136154;1294;22348;-82
2023/11/28 17:00:10;;;;;;;;;;;;;;;;;;136135;1294;22457;-82
2023/11/28 17:03:13;;;;;;;;;;;;;;;;;;136140;1294;22181;-82
2023/11/28 17:06:15;;;;;;;;;;;;;;;;;;136115;1294;22638;-81
2023/11/28 17:09:18;;;;;;;;;;;;;;;;;;136099;1294;22250;-81
2023/11/28 17:12:24;;;;;;;;;;;;;;;;;;136102;1294;23133;-81
2023/11/28 17:15:27;;;;;;;;;;;;;;;;;;136110;1294;22339;-81
2023/11/28 17:18:29;;;;;;;;;;;;;;;;;;136152;1294;22255;-81
2023/11/28 17:21:32;;;;;;;;;;;;;;;;;;136156;1294;22320;-81
2023/11/28 17:24:36;;;;;;;;;;;;;;;;;;136162;1294;22376;-83
2023/11/28 17:27:39;;;;;;;;;;;;;;;;;;136100;1294;22433;-84
2023/11/28 17:30:42;;;;;;;;;;;;;;;;;;136101;1286;22364;-82
2023/11/28 17:33:44;;;;;;;;;;;;;;;;;;136090;1294;22291;-80
2023/11/28 17:36:48;;;;;;;;;;;;;;;;;;136005;1294;22791;-81
2023/11/28 17:39:51;;;;;;;;;;;;;;;;;;136085;1294;23134;-81
2023/11/28 17:42:53;;;;;;;;;;;;;;;;;;136093;1294;23058;-82
2023/11/28 17:45:56;;;;;;;;;;;;;;;;;;136068;1294;22311;-82
2023/11/28 17:48:58;;;;;;;;;;;;;;;;;;136031;1294;22440;-81
2023/11/28 17:52:01;;;;;;;;;;;;;;;;;;136049;1291;22662;-82
2023/11/28 17:55:03;;;;;;;;;;;;;;;;;;136128;1294;22889;-82
2023/11/28 17:58:07;;;;;;;;;;;;;;;;;;136101;1294;22502;-82
2023/11/28 18:01:10;;;;;;;;;;;;;;;;;;136079;1294;22370;-82
2023/11/28 18:04:16;;;;;;;;;;;;;;;;;;136088;1294;22395;-83
2023/11/28 18:07:18;;;;;;;;;;;;;;;;;;136114;1294;22578;-83
2023/11/28 18:10:22;;;;;;;;;;;;;;;;;;136079;1294;22279;-83
2023/11/28 18:13:27;;;;;;;;;;;;;;;;;;136101;1294;22494;-83
2023/11/28 18:16:30;;;;;;;;;;;;;;;;;;136190;1294;22821;-83
2023/11/28 18:19:33;;;;;;;;;;;;;;;;;;136196;1294;22163;-83
2023/11/28 18:22:35;;;;;;;;;;;;;;;;;;136244;1294;22186;-82
2023/11/28 18:25:37;;;;;;;;;;;;;;;;;;136278;1294;22523;-81
2023/11/28 18:28:40;;;;;;;;;;;;;;;;;;136279;1294;22800;-83
2023/11/28 18:31:43;;;;;;;;;;;;;;;;;;136222;1294;22268;-82
2023/11/28 18:34:47;;;;;;;;;;;;;;;;;;136156;1294;22278;-83
2023/11/28 18:37:49;;;;;;;;;;;;;;;;;;136136;1294;22342;-83
2023/11/28 18:40:54;;;;;;;;;;;;;;;;;;136131;1286;22709;-83
2023/11/28 18:43:59;;;;;;;;;;;;;;;;;;136166;1294;22390;-83
2023/11/28 18:47:02;;;;;;;;;;;;;;;;;;136173;1294;22299;-83
2023/11/28 18:50:04;;;;;;;;;;;;;;;;;;136108;1294;22363;-81
2023/11/28 18:53:07;;;;;;;;;;;;;;;;;;136103;1294;22292;-83
2023/11/28 18:56:09;;;;;;;;;;;;;;;;;;136132;1294;22197;-83
2023/11/28 18:59:12;;;;;;;;;;;;;;;;;;136127;1294;22468;-82
2023/11/28 19:02:14;;;;;;;;;;;;;;;;;;136137;1294;22294;-83
2023/11/28 19:05:17;;;;;;;;;;;;;;;;;;136137;1294;22722;-83
2023/11/28 19:08:20;;;;;;;;;;;;;;;;;;136205;1294;22568;-84
2023/11/28 19:11:24;;;;;;;;;;;;;;;;;;136128;1294;22604;-82
2023/11/28 19:14:26;;;;;;;;;;;;;;;;;;136161;1294;22343;-82
2023/11/28 19:17:29;;;;;;;;;;;;;;;;;;136102;1294;22296;-83
2023/11/28 19:20:32;;;;;;;;;;;;;;;;;;136071;1294;22640;-81
2023/11/28 19:23:34;;;;;;;;;;;;;;;;;;136130;1294;22180;-83
2023/11/28 19:26:37;;;;;;;;;;;;;;;;;;136160;1294;22627;-83
2023/11/28 19:29:39;;;;;;;;;;;;;;;;;;136149;1290;22579;-82
2023/11/28 19:32:42;;;;;;;;;;;;;;;;;;136140;1294;22273;-79
2023/11/28 19:35:44;;;;;;;;;;;;;;;;;;136075;1294;22853;-78
2023/11/28 19:38:47;;;;;;;;;;;;;;;;;;136148;1294;22394;-83
2023/11/28 19:41:49;;;;;;;;;;;;;;;;;;136136;1294;22355;-82
2023/11/28 19:44:52;;;;;;;;;;;;;;;;;;136188;1294;22294;-82
2023/11/28 19:47:56;;;;;;;;;;;;;;;;;;136300;1291;22258;-78
2023/11/28 19:51:00;;;;;;;;;;;;;;;;;;136228;1292;22285;-83
2023/11/28 19:54:07;;;;;;;;;;;;;;;;;;136207;1294;22315;-83
2023/11/28 19:57:09;;;;;;;;;;;;;;;;;;136155;1294;22449;-82
2023/11/28 20:00:12;;;;;;;;;;;;;;;;;;136116;1294;22410;-82
2023/11/28 20:03:14;;;;;;;;;;;;;;;;;;136195;1294;22759;-79
2023/11/28 20:06:17;;;;;;;;;;;;;;;;;;136165;1294;22793;-80
2023/11/28 20:09:20;;;;;;;;;;;;;;;;;;136158;1294;22605;-82
2023/11/28 20:12:22;;;;;;;;;;;;;;;;;;136153;1294;22659;-82
2023/11/28 20:15:25;;;;;;;;;;;;;;;;;;135938;1294;22510;-82
2023/11/28 20:18:27;;;;;;;;;;;;;;;;;;136153;1294;22304;-83
2023/11/28 20:21:30;;;;;;;;;;;;;;;;;;136160;1294;22343;-83
2023/11/28 20:24:32;;;;;;;;;;;;;;;;;;136197;1294;22713;-83
2023/11/28 20:27:35;;;;;;;;;;;;;;;;;;135911;1294;22445;-82